LF3951 weather

Doucier ULM
Franche-Comté, France

Public forecast

Using degrees Celsius for public forecast. Weather courtesy of forecast.io.

METAR (pilot weather report)

Closest report is Dole-Tavaux Airport, 26.4 nm (48.9 km) NNW. Retrieved 2019/07/20 15:30 UTC (24 minutes ago):

LFGJ 201530Z AUTO 19013KT CAVOK 31/13 Q1014 TEMPO 26018G35KT TSRA BECMG FEW070CB SCT090

TAF (pilot weather forecast)

Closest forecast is Geneva Cointrin International Airport, 29.3 nm (54.3 km) SSE. Retrieved 2019/07/20 15:36 UTC (18 minutes ago):

TAF LSGG 201425Z 2015/2121 23012KT 9999 FEW060 SCT100 TX32/2015Z TN19/2104Z TX32/2115Z PROB30 TEMPO 2020/2024 SHRA SCT060TCU BECMG 2100/2102 VRB03KT